This is the latest recevied weather packets stored in our database for station/object KLEMETTI. If no packets are shown the sender has not sent any weather packets the latest 10 day(s).
| Time | Temp. | Humidity | Pressure | Rain* | Wind** | Luminosity | Snow |
|---|---|---|---|---|---|---|---|
| 1777729628 | 13.89° C | 49% | 1006.6 hPa | 0 mm | - | - | - |
| 1777728429 | 13.89° C | 52% | 1006.8 hPa | 0 mm | - | - | - |
| 1777727228 | 13.33° C | 57% | 1006.7 hPa | 0 mm | - | - | - |
| 1777726028 | 12.22° C | 61% | 1006.8 hPa | 0 mm | - | - | - |
| 1777724828 | 11.11° C | 66% | 1006.8 hPa | 0 mm | - | - | - |
| 1777723628 | 11.11° C | 66% | 1007 hPa | 0 mm | - | - | - |
| 1777722428 | 11.67° C | 65% | 1006.8 hPa | 0 mm | - | - | - |
| 1777721228 | 12.22° C | 64% | 1006.9 hPa | 0 mm | - | - | - |
| 1777720028 | 12.22° C | 64% | 1006.7 hPa | 0 mm | - | - | - |
| 1777718827 | 12.22° C | 62% | 1006.5 hPa | 0 mm | - | - | - |
| 1777717628 | 13.33° C | 58% | 1006.4 hPa | 0 mm | - | - | - |
| 1777716428 | 12.78° C | 57% | 1006.3 hPa | 0 mm | - | - | - |
| 1777715227 | 12.78° C | 61% | 1006.4 hPa | 0 mm | - | - | - |
| 1777714028 | 12.22° C | 62% | 1006.4 hPa | 0 mm | - | - | - |
| 1777712827 | 11.67° C | 64% | 1006.6 hPa | 0 mm | - | - | - |
| 1777711627 | 11.11° C | 66% | 1006.5 hPa | 0 mm | - | - | - |
| 1777710427 | 10.56° C | 66% | 1006.5 hPa | 0 mm | - | - | - |
| 1777709227 | 10.56° C | 69% | 1006.3 hPa | 0 mm | - | - | - |
| 1777708028 | 9.44° C | 70% | 1006.7 hPa | 0 mm | - | - | - |
| 1777706826 | 8.89° C | 73% | 1006.6 hPa | 0 mm | - | - | - |
| 1777705627 | 9.44° C | 73% | 1006.5 hPa | 0 mm | - | - | - |
| 1777704426 | 8.89° C | 73% | 1006.4 hPa | 0 mm | - | - | - |
| 1777703227 | 8.33° C | 74% | 1006.3 hPa | 0 mm | - | - | - |
| 1777702027 | 8.33° C | 74% | 1006.3 hPa | 0 mm | - | - | - |
| 1777700827 | 9.44° C | 71% | 1006.2 hPa | 0 mm | - | - | - |
* Rain latest hour (hover to see other rain measurements)
** Current wind speed in m/s (hover to see current wind gust speed)